Time;durP1;ratioP1;P1;durP2;ratioP2;P2;SDS_P1;SDS_P2;PMS_P1;PMS_P2;Temp;Humidity;BMP_temperature;BMP_pressure;BME280_temperature;BME280_humidity;BME280_pressure;Samples;Min_cycle;Max_cycle;Signal;HPM_P1;HPM_P2
2022/10/08 04:04:12;;;;;;;14.87;7.80;;;14.20;99.90;;;;;;5834810;22;20492;-68
2022/10/08 04:06:37;;;;;;;7.73;6.97;;;14.20;99.90;;;;;;5013843;28;20440;-67
2022/10/08 04:09:03;;;;;;;6.30;5.70;;;14.10;99.90;;;;;;5014115;28;20166;-66
2022/10/08 04:11:28;;;;;;;7.27;6.37;;;14.10;99.90;;;;;;4996430;28;20167;-67
2022/10/08 04:13:54;;;;;;;11.70;6.20;;;14.10;99.90;;;;;;5013504;28;20537;-68
2022/10/08 04:16:20;;;;;;;6.33;5.73;;;14.20;99.90;;;;;;5013856;28;20639;-68
2022/10/08 04:18:46;;;;;;;9.20;6.90;;;14.20;99.90;;;;;;5014207;28;20625;-69
2022/10/08 04:21:16;;;;;;;6.90;5.60;;;14.20;99.90;;;;;;5013798;28;20178;-68
2022/10/08 04:23:42;;;;;;;5.70;5.13;;;14.20;99.90;;;;;;5013606;28;20479;-67
2022/10/08 04:26:10;;;;;;;7.03;6.00;;;14.20;99.90;;;;;;5010504;28;20475;-67
2022/10/08 04:28:40;;;;;;;6.13;4.77;;;14.20;99.90;;;;;;4994025;28;20988;-67
2022/10/08 04:31:09;;;;;;;8.97;7.10;;;14.20;99.90;;;;;;4994215;28;20462;-68
2022/10/08 04:33:35;;;;;;;9.10;7.07;;;14.20;99.90;;;;;;4992944;28;20433;-67
2022/10/08 04:36:06;;;;;;;8.40;7.57;;;14.20;99.90;;;;;;4993743;28;20761;-67
2022/10/08 04:38:31;;;;;;;8.83;7.03;;;14.20;99.90;;;;;;4994341;28;20900;-67
2022/10/08 04:41:05;;;;;;;8.90;7.37;;;14.20;99.90;;;;;;5011781;28;20476;-67
2022/10/08 04:43:32;;;;;;;7.70;6.90;;;14.20;99.90;;;;;;5012842;28;20185;-68
2022/10/08 04:45:57;;;;;;;8.90;7.00;;;14.30;99.90;;;;;;5017835;28;20444;-67
2022/10/08 04:48:23;;;;;;;10.43;8.13;;;14.30;99.90;;;;;;5017857;28;20441;-67
2022/10/08 04:50:56;;;;;;;8.43;7.57;;;14.40;99.90;;;;;;5017554;28;20203;-67
2022/10/08 04:53:24;;;;;;;9.30;6.93;;;14.40;99.90;;;;;;5017293;28;20216;-67
2022/10/08 04:55:50;;;;;;;11.20;6.53;;;14.40;99.90;;;;;;4998067;28;20553;-68
2022/10/08 04:58:16;;;;;;;7.30;6.57;;;14.40;99.90;;;;;;4997779;28;20433;-68
2022/10/08 05:00:41;;;;;;;7.53;6.83;;;14.50;99.90;;;;;;4997774;28;20897;-67
2022/10/08 05:03:07;;;;;;;8.77;6.50;;;14.50;99.90;;;;;;5011244;28;20556;-67
2022/10/08 05:05:32;;;;;;;7.80;7.00;;;14.50;99.90;;;;;;5016679;28;20225;-67
2022/10/08 05:07:58;;;;;;;8.23;7.03;;;14.50;99.90;;;;;;5017331;28;20178;-67
2022/10/08 05:10:23;;;;;;;7.60;6.80;;;14.50;99.90;;;;;;5017258;28;20682;-67
2022/10/08 05:12:49;;;;;;;8.33;7.43;;;14.50;99.90;;;;;;5016974;28;20529;-67
2022/10/08 05:15:15;;;;;;;8.33;7.40;;;14.50;99.90;;;;;;5017093;28;20245;-67
2022/10/08 05:17:40;;;;;;;8.03;6.53;;;14.50;99.90;;;;;;5003655;28;20210;-66
2022/10/08 05:20:06;;;;;;;17.90;12.47;;;14.40;99.90;;;;;;4997472;28;20195;-67
2022/10/08 05:22:32;;;;;;;12.60;10.47;;;14.40;99.90;;;;;;4997234;28;20179;-67
2022/10/08 05:24:58;;;;;;;8.70;7.80;;;14.50;99.90;;;;;;4997230;28;20496;-67
2022/10/08 05:27:23;;;;;;;10.17;8.07;;;14.40;99.90;;;;;;5012281;28;20196;-67
2022/10/08 05:29:49;;;;;;;8.03;7.23;;;14.40;99.90;;;;;;5017006;28;20202;-67
2022/10/08 05:32:14;;;;;;;8.67;6.67;;;14.40;99.90;;;;;;5016838;28;20614;-67
2022/10/08 05:34:40;;;;;;;7.83;7.10;;;14.30;99.90;;;;;;5016482;28;20248;-67
2022/10/08 05:37:05;;;;;;;10.20;8.17;;;14.30;99.90;;;;;;5016758;28;20632;-67
2022/10/08 05:39:31;;;;;;;7.50;6.80;;;14.30;99.90;;;;;;5016810;28;20285;-67
2022/10/08 05:41:57;;;;;;;9.33;8.10;;;14.20;99.90;;;;;;5002486;28;20193;-67
2022/10/08 05:44:22;;;;;;;10.07;7.37;;;14.20;99.90;;;;;;4996581;28;20648;-66
2022/10/08 05:46:48;;;;;;;9.30;6.70;;;14.10;99.90;;;;;;4997006;28;20174;-67
2022/10/08 05:49:22;;;;;;;10.80;7.83;;;14.10;99.90;;;;;;4996880;28;20652;-68
2022/10/08 05:51:49;;;;;;;7.97;7.00;;;14.00;99.90;;;;;;4979577;28;20261;-68
2022/10/08 05:54:15;;;;;;;8.40;7.10;;;14.00;99.90;;;;;;4996340;28;20517;-67
2022/10/08 05:56:41;;;;;;;11.47;7.27;;;14.00;99.90;;;;;;4979330;28;20426;-67
2022/10/08 05:59:15;;;;;;;8.50;7.10;;;14.00;99.90;;;;;;4996894;28;20419;-67
2022/10/08 06:01:41;;;;;;;7.37;6.67;;;14.00;99.90;;;;;;4979358;28;20170;-68
2022/10/08 06:04:10;;;;;;;8.10;7.27;;;14.00;99.90;;;;;;4996310;28;20529;-68
2022/10/08 06:06:36;;;;;;;7.10;6.43;;;14.00;99.90;;;;;;4996444;28;20250;-67
2022/10/08 06:09:02;;;;;;;11.40;7.93;;;14.00;99.90;;;;;;4996919;28;20752;-67
2022/10/08 06:11:30;;;;;;;8.17;7.30;;;14.00;99.90;;;;;;4996872;28;20463;-68
2022/10/08 06:13:57;;;;;;;8.50;7.03;;;14.10;99.90;;;;;;4995507;28;20804;-67
2022/10/08 06:16:24;;;;;;;9.80;6.50;;;14.10;99.90;;;;;;4996573;28;20398;-67
2022/10/08 06:18:49;;;;;;;7.30;6.60;;;14.20;99.90;;;;;;5002714;28;20414;-68
2022/10/08 06:21:18;;;;;;;10.00;7.13;;;14.20;99.90;;;;;;5005054;28;20475;-67
2022/10/08 06:23:49;;;;;;;9.60;7.70;;;14.30;99.90;;;;;;5009450;28;20187;-68
2022/10/08 06:26:16;;;;;;;11.27;9.23;;;14.40;99.90;;;;;;5014849;28;20421;-68
2022/10/08 06:28:43;;;;;;;10.60;9.07;;;14.40;99.90;;;;;;5015650;28;20396;-67
2022/10/08 06:31:08;;;;;;;10.70;8.07;;;14.50;99.90;;;;;;5015857;28;20476;-67
2022/10/08 06:33:34;;;;;;;9.30;8.23;;;14.50;99.90;;;;;;5015057;28;20426;-67
2022/10/08 06:36:23;;;;;;;9.43;8.13;;;14.50;99.90;;;;;;5015038;28;20242;-68
2022/10/08 06:38:57;;;;;;;9.60;7.37;;;14.60;99.90;;;;;;5017350;28;20430;-68
2022/10/08 06:41:24;;;;;;;9.70;7.03;;;14.70;99.90;;;;;;5017420;28;20499;-68
2022/10/08 06:43:50;;;;;;;11.50;7.13;;;14.80;99.90;;;;;;5014976;28;20433;-68
2022/10/08 06:46:17;;;;;;;9.40;6.87;;;14.90;99.90;;;;;;5015108;28;20904;-68
2022/10/08 06:48:43;;;;;;;9.80;7.63;;;14.90;99.90;;;;;;5015595;28;20417;-69
2022/10/08 06:51:14;;;;;;;7.30;6.57;;;15.10;99.90;;;;;;5002905;28;20477;-69
2022/10/08 06:53:41;;;;;;;8.07;6.67;;;15.10;99.90;;;;;;5010059;28;20237;-70
2022/10/08 06:56:16;;;;;;;8.37;7.17;;;15.30;99.90;;;;;;5015144;28;21209;-67
2022/10/08 06:58:43;;;;;;;7.30;6.60;;;15.40;99.90;;;;;;5015134;28;20404;-66
2022/10/08 07:01:35;;;;;;;6.97;6.27;;;15.60;99.90;;;;;;5015472;28;20418;-67
2022/10/08 07:04:02;;;;;;;13.40;7.13;;;15.80;99.90;;;;;;5011301;28;20805;-67
2022/10/08 07:06:28;;;;;;;7.90;6.00;;;16.00;99.90;;;;;;4998790;28;20462;-66
2022/10/08 07:08:56;;;;;;;9.80;5.83;;;16.20;99.90;;;;;;4996121;28;20440;-66
2022/10/08 07:11:22;;;;;;;7.40;6.30;;;16.40;99.90;;;;;;4996228;28;20204;-66
2022/10/08 07:13:48;;;;;;;7.93;6.17;;;16.70;99.90;;;;;;4999863;28;20428;-66
2022/10/08 07:16:16;;;;;;;7.90;5.73;;;17.00;99.90;;;;;;4983544;28;20463;-67
2022/10/08 07:18:54;;;;;;;7.87;5.70;;;17.50;99.90;;;;;;4999818;28;20164;-65
2022/10/08 07:21:21;;;;;;;5.63;5.07;;;18.20;99.90;;;;;;5014671;28;20425;-67
2022/10/08 07:23:47;;;;;;;6.23;5.50;;;18.90;99.90;;;;;;5014826;28;20425;-67
2022/10/08 07:26:18;;;;;;;7.57;5.83;;;19.60;99.90;;;;;;5014025;28;20423;-67
2022/10/08 07:28:50;;;;;;;7.50;6.70;;;20.20;99.90;;;;;;5013249;28;20480;-67
2022/10/08 07:31:21;;;;;;;5.63;5.03;;;20.80;99.90;;;;;;5013758;28;20488;-67
2022/10/08 07:33:47;;;;;;;8.50;5.40;;;21.20;99.90;;;;;;5013251;28;21031;-67
2022/10/08 07:36:18;;;;;;;5.07;4.53;;;21.50;99.90;;;;;;4996220;28;20497;-69
2022/10/08 07:38:44;;;;;;;8.00;5.20;;;22.00;99.90;;;;;;5014147;28;20202;-67
2022/10/08 07:41:11;;;;;;;4.77;4.33;;;22.30;99.90;;;;;;5014363;28;20889;-67
2022/10/08 07:43:41;;;;;;;5.23;4.73;;;22.60;99.90;;;;;;5013843;28;20283;-67
2022/10/08 07:46:09;;;;;;;6.20;4.60;;;22.70;99.90;;;;;;5014726;28;20480;-68
2022/10/08 07:48:35;;;;;;;5.13;4.10;;;22.90;99.90;;;;;;5014664;28;20477;-67
2022/10/08 07:51:09;;;;;;;4.20;3.80;;;22.90;99.90;;;;;;4978606;28;20459;-67
2022/10/08 07:53:35;;;;;;;5.33;4.90;;;22.60;99.90;;;;;;4994342;28;20872;-67
2022/10/08 07:56:01;;;;;;;29.27;10.33;;;22.30;99.90;;;;;;4994482;28;20434;-67
2022/10/08 07:58:27;;;;;;;5.80;4.10;;;21.90;99.90;;;;;;4994413;28;20418;-67
2022/10/08 08:01:00;;;;;;;5.60;4.37;;;21.30;99.90;;;;;;4994435;28;20415;-67
2022/10/08 08:03:26;;;;;;;3.93;3.63;;;20.80;99.90;;;;;;4993940;28;20179;-67
2022/10/08 08:05:52;;;;;;;6.63;4.70;;;20.50;99.90;;;;;;4994632;28;20443;-67
2022/10/08 08:08:23;;;;;;;4.43;3.97;;;20.50;99.90;;;;;;4994274;28;20916;-67
2022/10/08 08:11:01;;;;;;;3.00;2.40;;;20.60;99.90;;;;;;4977218;28;20482;-67
2022/10/08 08:13:28;;;;;;;5.00;2.67;;;20.30;99.90;;;;;;4993894;28;20477;-67
2022/10/08 08:15:58;;;;;;;2.50;1.80;;;20.10;99.90;;;;;;4994416;28;20953;-67
2022/10/08 08:18:27;;;;;;;3.50;1.97;;;19.80;99.60;;;;;;4976677;28;20409;-66
2022/10/08 08:21:00;;;;;;;3.00;2.20;;;19.50;98.70;;;;;;5001361;28;20841;-66
2022/10/08 08:23:30;;;;;;;3.77;1.90;;;19.20;97.90;;;;;;5013356;28;20418;-66
2022/10/08 08:25:59;;;;;;;4.83;2.70;;;18.90;98.40;;;;;;5010382;28;20468;-65
2022/10/08 08:28:25;;;;;;;2.33;1.47;;;18.60;99.10;;;;;;4994134;28;20411;-66
2022/10/08 08:30:50;;;;;;;4.57;2.67;;;18.50;99.60;;;;;;4993969;28;20796;-66
2022/10/08 08:33:16;;;;;;;4.10;1.83;;;18.50;99.60;;;;;;4993506;28;20183;-66
2022/10/08 08:35:51;;;;;;;2.23;1.90;;;18.80;99.80;;;;;;4994062;28;20618;-66
2022/10/08 08:38:16;;;;;;;4.73;2.33;;;19.10;99.40;;;;;;4994108;28;20198;-66
2022/10/08 08:40:42;;;;;;;4.03;1.77;;;19.60;99.10;;;;;;4997157;28;20429;-67
2022/10/08 08:43:08;;;;;;;4.23;1.20;;;20.00;97.70;;;;;;5013043;28;20242;-67
2022/10/08 08:45:40;;;;;;;1.80;1.67;;;20.50;97.20;;;;;;5013935;28;20238;-67
2022/10/08 08:48:24;;;;;;;2.17;1.70;;;21.30;94.50;;;;;;5013732;28;20171;-67
2022/10/08 08:50:55;;;;;;;2.63;1.40;;;22.10;93.20;;;;;;5013657;28;20770;-67
2022/10/08 08:53:21;;;;;;;2.00;1.33;;;22.80;92.60;;;;;;5013028;28;20950;-67
2022/10/08 08:55:52;;;;;;;5.50;1.93;;;23.10;92.10;;;;;;5006864;28;20397;-67
2022/10/08 08:58:26;;;;;;;1.70;1.60;;;23.30;91.30;;;;;;4993801;28;20418;-67
2022/10/08 09:01:00;;;;;;;2.43;1.77;;;23.80;91.50;;;;;;4993953;28;20393;-67
2022/10/08 09:03:33;;;;;;;8.70;1.70;;;24.50;89.60;;;;;;4993414;28;20453;-66
2022/10/08 09:06:04;;;;;;;3.40;1.27;;;25.10;86.30;;;;;;4993563;28;20488;-66
2022/10/08 09:08:39;;;;;;;2.00;1.77;;;25.60;86.00;;;;;;5007288;28;20400;-67
2022/10/08 09:11:05;;;;;;;2.60;1.80;;;26.00;83.40;;;;;;5013423;28;20438;-67
2022/10/08 09:13:46;;;;;;;1.77;1.63;;;26.40;82.00;;;;;;5012777;28;20385;-67
2022/10/08 09:16:13;;;;;;;1.73;1.63;;;26.80;80.50;;;;;;5013127;28;20391;-67
2022/10/08 09:18:43;;;;;;;1.63;1.40;;;27.20;78.60;;;;;;5013352;28;20880;-67
2022/10/08 09:21:09;;;;;;;1.90;1.50;;;27.60;77.90;;;;;;4996255;28;20380;-67
2022/10/08 09:23:35;;;;;;;1.43;1.33;;;27.80;75.40;;;;;;4995154;28;20793;-68
2022/10/08 09:26:14;;;;;;;2.17;1.60;;;27.90;74.80;;;;;;4993704;28;20187;-67
2022/10/08 09:28:41;;;;;;;3.60;2.83;;;28.20;72.10;;;;;;4993672;28;20190;-68
2022/10/08 09:31:15;;;;;;;2.17;1.60;;;28.40;74.30;;;;;;4995847;28;20986;-67
2022/10/08 09:33:41;;;;;;;2.33;1.70;;;28.80;70.20;;;;;;4996918;28;20497;-68
2022/10/08 09:36:08;;;;;;;2.60;2.00;;;28.60;70.20;;;;;;4997297;28;20385;-68
2022/10/08 09:38:38;;;;;;;1.70;1.60;;;28.60;70.00;;;;;;5016369;28;20806;-67
2022/10/08 09:41:16;;;;;;;6.53;1.93;;;28.70;68.70;;;;;;5016725;28;20400;-67
2022/10/08 09:43:43;;;;;;;3.73;1.80;;;28.70;68.90;;;;;;5016396;28;20419;-68
2022/10/08 09:46:29;;;;;;;1.67;1.50;;;28.40;68.30;;;;;;5016523;28;20426;-68
2022/10/08 09:48:54;;;;;;;3.53;1.70;;;27.90;69.70;;;;;;5016669;28;20401;-67
2022/10/08 09:51:20;;;;;;;5.13;1.67;;;27.90;71.80;;;;;;5012775;28;20472;-67
2022/10/08 09:53:50;;;;;;;1.40;1.30;;;27.80;70.80;;;;;;4996617;28;20196;-67
2022/10/08 09:56:26;;;;;;;2.10;1.80;;;27.80;71.40;;;;;;4996942;28;20179;-68
2022/10/08 09:58:55;;;;;;;2.30;2.10;;;27.90;71.90;;;;;;4997129;28;20378;-66
2022/10/08 10:01:21;;;;;;;3.57;2.40;;;27.50;70.40;;;;;;4979410;28;20494;-67
2022/10/08 10:03:53;;;;;;;2.40;1.40;;;26.80;70.20;;;;;;4996284;28;20555;-67
2022/10/08 10:06:35;;;;;;;2.07;1.90;;;26.40;71.80;;;;;;5001497;28;20424;-66
2022/10/08 10:09:10;;;;;;;1.87;1.60;;;26.50;73.80;;;;;;4999209;28;20947;-67
2022/10/08 10:11:48;;;;;;;1.63;1.33;;;26.60;73.20;;;;;;4998352;28;20921;-68
2022/10/08 10:14:41;;;;;;;2.07;1.83;;;26.60;70.40;;;;;;5015706;28;20405;-68
2022/10/08 10:17:37;;;;;;;3.10;1.60;;;26.10;70.20;;;;;;5016065;28;20488;-66
2022/10/08 10:20:20;;;;;;;5.17;4.67;;;25.40;74.20;;;;;;4998476;28;20420;-66
2022/10/08 10:22:53;;;;;;;1.57;1.43;;;25.50;75.80;;;;;;4996126;28;20436;-67
2022/10/08 10:25:33;;;;;;;2.03;1.70;;;25.40;74.00;;;;;;4996068;28;20826;-68
2022/10/08 10:28:10;;;;;;;5.10;1.90;;;25.00;74.50;;;;;;4996677;28;20438;-67
2022/10/08 10:30:47;;;;;;;3.00;1.60;;;24.50;75.20;;;;;;4996460;28;20446;-67
2022/10/08 10:33:35;;;;;;;2.03;1.60;;;24.10;78.40;;;;;;4995871;28;20741;-67
2022/10/08 10:36:06;;;;;;;2.83;2.30;;;23.90;78.70;;;;;;4995915;28;20397;-67
2022/10/08 10:38:36;;;;;;;1.43;1.33;;;23.80;79.90;;;;;;4995993;28;20406;-67
2022/10/08 10:41:29;;;;;;;2.47;1.37;;;23.40;78.40;;;;;;4996203;28;20450;-65
2022/10/08 10:44:04;;;;;;;1.53;1.43;;;23.50;80.10;;;;;;4995368;28;20489;-66
2022/10/08 10:46:37;;;;;;;1.80;1.40;;;23.70;79.20;;;;;;4995931;28;20924;-66
2022/10/08 10:49:19;;;;;;;2.93;1.77;;;23.70;77.80;;;;;;4996036;28;20403;-66
2022/10/08 10:52:00;;;;;;;1.97;1.47;;;23.80;77.90;;;;;;5000325;28;20400;-66
2022/10/08 10:54:34;;;;;;;1.30;1.20;;;23.70;76.80;;;;;;4995289;28;20931;-66
2022/10/08 10:57:07;;;;;;;1.17;1.03;;;23.30;74.90;;;;;;4995758;28;20705;-66
2022/10/08 10:59:47;;;;;;;2.70;1.47;;;22.80;76.90;;;;;;4995793;28;20451;-66
2022/10/08 11:02:28;;;;;;;1.80;1.70;;;22.30;78.00;;;;;;4978108;28;20911;-67
2022/10/08 11:05:02;;;;;;;3.03;1.23;;;21.80;79.40;;;;;;4962528;28;20557;-67
2022/10/08 11:07:43;;;;;;;5.73;1.60;;;21.50;81.20;;;;;;4995936;28;20472;-67
2022/10/08 11:10:28;;;;;;;7.93;1.73;;;21.40;80.40;;;;;;4995346;28;20835;-67
2022/10/08 11:12:59;;;;;;;1.73;1.10;;;21.20;79.50;;;;;;4994929;28;20382;-68
2022/10/08 11:15:35;;;;;;;1.80;0.93;;;21.00;82.00;;;;;;4995199;28;20443;-67
2022/10/08 11:18:10;;;;;;;5.90;1.60;;;20.70;80.50;;;;;;4995651;28;20435;-66
2022/10/08 11:21:00;;;;;;;2.30;1.97;;;20.50;81.80;;;;;;5004632;28;20577;-67
2022/10/08 11:23:50;;;;;;;2.87;1.30;;;20.40;85.60;;;;;;5014262;28;20420;-66
2022/10/08 11:26:24;;;;;;;1.70;1.27;;;20.20;83.20;;;;;;5014994;28;20402;-66
2022/10/08 11:29:37;;;;;;;2.90;1.50;;;20.10;84.90;;;;;;5014835;28;20741;-66
2022/10/08 11:32:04;;;;;;;3.03;1.03;;;20.00;84.80;;;;;;5014624;28;20412;-67
2022/10/08 11:34:34;;;;;;;5.27;2.03;;;19.90;84.90;;;;;;5011240;28;20473;-65
2022/10/08 11:37:33;;;;;;;1.73;1.27;;;19.90;84.70;;;;;;4995017;28;20412;-66
2022/10/08 11:40:13;;;;;;;1.53;1.40;;;19.70;85.40;;;;;;4994693;28;20453;-66
2022/10/08 11:43:06;;;;;;;1.80;1.10;;;19.70;86.10;;;;;;4993958;28;20505;-66
2022/10/08 11:45:38;;;;;;;1.33;1.23;;;19.60;86.40;;;;;;4994734;28;20450;-66
2022/10/08 11:48:31;;;;;;;2.07;1.47;;;19.50;86.70;;;;;;4976976;28;20713;-66
2022/10/08 11:51:15;;;;;;;3.37;1.00;;;19.40;87.20;;;;;;4994882;28;20447;-66
2022/10/08 11:53:41;;;;;;;2.50;1.20;;;19.40;88.30;;;;;;4993794;28;20434;-66
2022/10/08 11:56:09;;;;;;;2.60;1.30;;;19.40;87.50;;;;;;4994772;28;20406;-66
2022/10/08 11:58:35;;;;;;;1.17;1.03;;;19.30;86.90;;;;;;4994523;28;20179;-65
2022/10/08 12:01:08;;;;;;;4.87;1.20;;;19.30;87.70;;;;;;4994886;28;20485;-67
2022/10/08 12:03:37;;;;;;;2.40;1.53;;;19.20;89.50;;;;;;4994136;28;20210;-67
2022/10/08 12:06:22;;;;;;;1.30;1.30;;;19.10;88.60;;;;;;5012325;28;20438;-67
2022/10/08 12:09:03;;;;;;;2.53;1.10;;;19.10;87.90;;;;;;4994583;28;20399;-66
2022/10/08 12:11:31;;;;;;;1.83;1.00;;;19.00;88.10;;;;;;4994427;28;20462;-66
2022/10/08 12:14:12;;;;;;;2.80;1.10;;;18.90;88.60;;;;;;4994003;28;20562;-66
2022/10/08 12:16:49;;;;;;;1.23;1.10;;;18.90;88.80;;;;;;4994468;28;20414;-65
2022/10/08 12:20:00;;;;;;;5.90;1.33;;;19.00;90.40;;;;;;5000972;28;20451;-66
2022/10/08 12:22:26;;;;;;;2.20;1.07;;;19.00;89.10;;;;;;4933948;29;20406;-66
2022/10/08 12:24:52;;;;;;;3.80;1.40;;;19.00;90.00;;;;;;4934013;29;20512;-65
2022/10/08 12:27:33;;;;;;;2.47;1.17;;;19.10;89.70;;;;;;4934262;29;20185;-65
2022/10/08 12:30:04;;;;;;;1.80;1.40;;;19.20;89.70;;;;;;4934075;29;20457;-65
2022/10/08 12:32:43;;;;;;;3.87;0.77;;;19.20;89.70;;;;;;4933632;29;20417;-66
2022/10/08 12:35:29;;;;;;;2.93;1.17;;;19.20;89.50;;;;;;4934248;29;20828;-66
2022/10/08 12:38:22;;;;;;;2.40;1.20;;;19.10;87.30;;;;;;4934322;29;20456;-66
2022/10/08 12:41:09;;;;;;;4.83;1.33;;;19.00;87.80;;;;;;4933696;29;20474;-66
2022/10/08 12:43:55;;;;;;;2.07;1.13;;;18.90;88.40;;;;;;4933900;29;20780;-66
2022/10/08 12:46:45;;;;;;;1.47;1.10;;;19.00;88.90;;;;;;4933977;29;20908;-66
2022/10/08 12:49:33;;;;;;;3.27;1.63;;;19.10;89.40;;;;;;4933726;29;20434;-65
2022/10/08 12:52:09;;;;;;;1.63;1.00;;;19.10;90.30;;;;;;4937043;28;20421;-67
2022/10/08 12:54:35;;;;;;;1.47;1.33;;;19.20;90.20;;;;;;4960280;28;20430;-66
2022/10/08 12:57:07;;;;;;;5.10;1.63;;;19.30;90.90;;;;;;4993880;28;20412;-66
2022/10/08 12:59:34;;;;;;;1.43;1.33;;;19.50;91.30;;;;;;4994958;28;20754;-66
2022/10/08 13:01:59;;;;;;;3.70;1.23;;;19.70;91.20;;;;;;4993857;28;20472;-66
2022/10/08 13:04:32;;;;;;;4.40;1.00;;;19.90;90.20;;;;;;4993183;28;20509;-66
2022/10/08 13:06:58;;;;;;;5.47;1.40;;;20.20;88.80;;;;;;4997421;28;20653;-66
2022/10/08 13:09:31;;;;;;;1.33;1.03;;;20.30;86.00;;;;;;4997124;28;20454;-66
2022/10/08 13:11:59;;;;;;;1.20;1.10;;;20.40;84.90;;;;;;5002170;28;20926;-66
2022/10/08 13:14:26;;;;;;;1.57;0.90;;;20.20;84.40;;;;;;5016695;28;20518;-66
2022/10/08 13:16:51;;;;;;;6.70;1.27;;;20.20;84.80;;;;;;5017191;28;20368;-66
2022/10/08 13:19:28;;;;;;;2.13;0.93;;;20.00;84.80;;;;;;5017028;28;20514;-65
2022/10/08 13:21:57;;;;;;;1.20;1.10;;;19.80;87.30;;;;;;5017167;28;20506;-66
2022/10/08 13:24:25;;;;;;;2.70;1.20;;;19.60;88.20;;;;;;4998956;28;20453;-66
2022/10/08 13:26:52;;;;;;;1.47;0.77;;;19.60;88.20;;;;;;5010629;28;20425;-66
2022/10/08 13:29:20;;;;;;;2.70;1.30;;;19.50;88.30;;;;;;4997332;28;20407;-65
2022/10/08 13:32:04;;;;;;;2.60;1.30;;;19.40;89.70;;;;;;4997349;28;20403;-66
2022/10/08 13:34:38;;;;;;;2.30;1.17;;;19.40;89.20;;;;;;4996659;28;20502;-66
2022/10/08 13:37:23;;;;;;;1.07;1.00;;;19.30;89.50;;;;;;4997346;28;20761;-65
2022/10/08 13:39:50;;;;;;;1.43;1.33;;;19.20;90.20;;;;;;4997068;28;20455;-64
2022/10/08 13:42:19;;;;;;;1.27;1.17;;;19.00;89.70;;;;;;5008394;28;20414;-65
2022/10/08 13:44:45;;;;;;;1.53;1.23;;;18.80;90.50;;;;;;5015657;28;20792;-66
2022/10/08 13:47:16;;;;;;;3.33;2.17;;;18.70;90.50;;;;;;5016487;28;20437;-66
2022/10/08 13:49:42;;;;;;;2.50;1.23;;;18.60;90.30;;;;;;5016392;28;20451;-66
2022/10/08 13:52:23;;;;;;;2.13;1.00;;;18.50;90.50;;;;;;5016621;28;20456;-66
2022/10/08 13:54:52;;;;;;;1.53;1.43;;;18.40;90.90;;;;;;5016274;28;20421;-65
2022/10/08 13:57:18;;;;;;;1.97;0.90;;;18.30;91.70;;;;;;5002209;28;20768;-65
2022/10/08 13:59:43;;;;;;;1.07;1.07;;;18.30;91.30;;;;;;4996853;28;20493;-66
2022/10/08 14:02:12;;;;;;;2.40;1.20;;;18.20;91.40;;;;;;4996516;28;20564;-65
2022/10/08 14:04:38;;;;;;;1.73;1.33;;;18.10;91.60;;;;;;4996209;28;20200;-65
2022/10/08 14:07:04;;;;;;;0.87;0.87;;;18.00;91.60;;;;;;4997361;28;20472;-65
2022/10/08 14:09:30;;;;;;;2.00;0.90;;;17.90;91.50;;;;;;4996720;28;20606;-66
2022/10/08 14:12:00;;;;;;;1.17;1.00;;;17.80;92.10;;;;;;4996784;28;20933;-66
2022/10/08 14:14:27;;;;;;;4.67;1.27;;;17.70;92.80;;;;;;4997465;28;20464;-66
2022/10/08 14:16:53;;;;;;;2.07;1.27;;;17.70;93.10;;;;;;5000849;28;20421;-67
2022/10/08 14:19:20;;;;;;;1.03;0.93;;;17.60;93.20;;;;;;4996565;28;20399;-66
2022/10/08 14:21:47;;;;;;;1.97;1.20;;;17.60;93.40;;;;;;4996561;28;20410;-66
2022/10/08 14:24:13;;;;;;;1.20;1.10;;;17.60;93.60;;;;;;4995904;28;20438;-66
2022/10/08 14:26:38;;;;;;;1.30;1.20;;;17.60;93.70;;;;;;5008633;28;20436;-66
2022/10/08 14:29:04;;;;;;;1.20;1.10;;;17.70;93.40;;;;;;5015535;28;20639;-66
2022/10/08 14:31:30;;;;;;;0.80;0.80;;;17.80;93.30;;;;;;5015626;28;20284;-65
2022/10/08 14:33:55;;;;;;;1.53;1.10;;;17.80;93.00;;;;;;5015188;28;20662;-67
2022/10/08 14:36:31;;;;;;;0.90;0.90;;;17.90;93.00;;;;;;5015537;28;20699;-65
2022/10/08 14:38:56;;;;;;;1.80;1.10;;;18.00;93.30;;;;;;5015407;28;20169;-66
2022/10/08 14:41:22;;;;;;;2.50;1.20;;;18.00;93.40;;;;;;5002572;28;20423;-66
2022/10/08 14:43:48;;;;;;;1.87;1.07;;;18.10;93.50;;;;;;4995450;28;20198;-65
2022/10/08 14:46:13;;;;;;;1.20;1.13;;;18.10;93.80;;;;;;4996149;28;20170;-66
2022/10/08 14:48:39;;;;;;;0.90;0.90;;;18.20;94.00;;;;;;5000617;28;20175;-66
2022/10/08 14:51:05;;;;;;;1.53;0.90;;;18.30;93.90;;;;;;5015501;28;20302;-66
2022/10/08 14:53:31;;;;;;;1.27;1.27;;;18.40;93.90;;;;;;5014970;28;20167;-66
2022/10/08 14:55:57;;;;;;;1.47;0.80;;;18.50;93.60;;;;;;5011629;28;20168;-66
2022/10/08 14:58:22;;;;;;;2.13;1.77;;;18.60;92.50;;;;;;4995787;28;20175;-66
2022/10/08 15:00:53;;;;;;;0.73;0.73;;;18.60;92.00;;;;;;4995566;28;20418;-66
2022/10/08 15:03:19;;;;;;;0.67;0.67;;;18.50;91.60;;;;;;4995191;28;20557;-66
2022/10/08 15:05:44;;;;;;;1.13;0.70;;;18.40;92.50;;;;;;4995252;28;20517;-66
2022/10/08 15:08:10;;;;;;;0.87;0.87;;;18.30;92.20;;;;;;4995488;28;20808;-65
2022/10/08 15:10:35;;;;;;;0.50;0.50;;;18.20;92.20;;;;;;4997790;28;20203;-65
2022/10/08 15:13:01;;;;;;;1.00;0.87;;;18.20;92.40;;;;;;4998239;28;20250;-65
2022/10/08 15:15:26;;;;;;;2.00;0.60;;;18.00;92.40;;;;;;5002600;28;20648;-66
2022/10/08 15:17:52;;;;;;;1.90;0.63;;;18.00;92.60;;;;;;5014180;28;20645;-66
2022/10/08 15:20:18;;;;;;;1.03;0.80;;;17.80;92.50;;;;;;4996540;28;20209;-66
2022/10/08 15:22:44;;;;;;;0.57;0.50;;;17.70;92.50;;;;;;5014138;28;20489;-66
2022/10/08 15:25:09;;;;;;;0.90;0.60;;;17.60;92.90;;;;;;5012081;28;20663;-65
2022/10/08 15:27:35;;;;;;;0.50;0.50;;;17.40;93.20;;;;;;4977883;28;20183;-66
2022/10/08 15:30:00;;;;;;;3.23;0.70;;;17.40;93.40;;;;;;4994969;28;20649;-65
2022/10/08 15:32:26;;;;;;;0.97;0.80;;;17.30;93.70;;;;;;4994825;28;20179;-64
2022/10/08 15:34:52;;;;;;;1.63;0.60;;;17.30;94.00;;;;;;5011118;28;20197;-66
2022/10/08 15:37:17;;;;;;;3.10;0.80;;;17.20;94.20;;;;;;5014659;28;20189;-65
2022/10/08 15:39:43;;;;;;;0.87;0.87;;;17.10;94.40;;;;;;5014041;28;20219;-66
2022/10/08 15:42:11;;;;;;;0.60;0.60;;;17.10;94.70;;;;;;5013914;28;20558;-67
2022/10/08 15:44:37;;;;;;;0.83;0.83;;;17.00;94.70;;;;;;5014071;28;20218;-66
2022/10/08 15:47:06;;;;;;;1.30;0.73;;;16.90;95.10;;;;;;5014441;28;20449;-66
2022/10/08 15:49:34;;;;;;;1.33;0.70;;;16.80;94.80;;;;;;5000277;28;20179;-65
2022/10/08 15:52:00;;;;;;;0.80;0.73;;;16.80;94.80;;;;;;4994511;28;20424;-65
2022/10/08 15:54:25;;;;;;;3.37;0.80;;;16.80;95.10;;;;;;5007255;28;20441;-66
2022/10/08 15:56:51;;;;;;;0.80;0.73;;;16.80;95.60;;;;;;4977383;28;20172;-66
2022/10/08 15:59:16;;;;;;;1.33;0.50;;;16.70;95.60;;;;;;4997676;28;20177;-65
2022/10/08 16:01:42;;;;;;;0.67;0.67;;;16.70;95.60;;;;;;5012221;28;20190;-65
2022/10/08 16:04:11;;;;;;;2.30;0.90;;;16.70;95.60;;;;;;5013213;28;20559;-65
2022/10/08 16:06:37;;;;;;;0.60;0.60;;;16.60;95.70;;;;;;5013840;28;20191;-65
2022/10/08 16:09:03;;;;;;;0.97;0.60;;;16.60;96.20;;;;;;5012405;28;20431;-65
2022/10/08 16:11:33;;;;;;;1.50;0.80;;;16.40;96.50;;;;;;4995631;28;20212;-65
2022/10/08 16:14:10;;;;;;;1.10;1.10;;;16.30;96.70;;;;;;4994043;28;20543;-66
2022/10/08 16:16:37;;;;;;;1.17;1.07;;;16.20;96.80;;;;;;4994520;28;20776;-66
2022/10/08 16:19:05;;;;;;;1.40;0.90;;;16.10;97.10;;;;;;4994259;28;20416;-66
2022/10/08 16:21:33;;;;;;;1.33;0.73;;;16.10;97.40;;;;;;4994160;28;20468;-65
2022/10/08 16:24:00;;;;;;;1.10;0.80;;;16.00;97.60;;;;;;4999445;28;20483;-65
2022/10/08 16:26:27;;;;;;;0.97;0.93;;;15.90;97.80;;;;;;4996067;28;20842;-65
2022/10/08 16:29:00;;;;;;;2.53;0.93;;;15.80;98.10;;;;;;4993978;28;20415;-65
2022/10/08 16:31:27;;;;;;;0.87;0.87;;;15.70;98.80;;;;;;4992867;28;20448;-66
2022/10/08 16:33:58;;;;;;;1.67;1.03;;;15.60;99.10;;;;;;4993883;28;20466;-66
2022/10/08 16:36:24;;;;;;;1.33;1.23;;;15.50;99.50;;;;;;4993245;28;20453;-65
2022/10/08 16:38:50;;;;;;;1.57;1.10;;;15.40;99.90;;;;;;4993523;28;20413;-65
2022/10/08 16:41:18;;;;;;;1.80;0.90;;;15.30;99.90;;;;;;4994283;28;20412;-65
2022/10/08 16:43:47;;;;;;;1.07;0.80;;;15.20;99.90;;;;;;4993477;28;20550;-66
2022/10/08 16:46:24;;;;;;;1.67;0.83;;;15.20;99.90;;;;;;4993727;28;20422;-67
2022/10/08 16:48:55;;;;;;;1.60;0.93;;;15.10;99.90;;;;;;4994031;28;20777;-66
2022/10/08 16:51:22;;;;;;;2.17;1.00;;;15.00;99.90;;;;;;4994236;28;20466;-66
2022/10/08 16:53:49;;;;;;;1.70;0.90;;;14.90;99.90;;;;;;5007026;28;20469;-65
2022/10/08 16:56:15;;;;;;;0.80;0.80;;;14.80;99.90;;;;;;5012924;28;20417;-65
2022/10/08 16:58:41;;;;;;;1.53;1.43;;;14.70;99.90;;;;;;5013419;28;20410;-66
2022/10/08 17:01:07;;;;;;;1.80;1.00;;;14.60;99.90;;;;;;5013370;28;20412;-65
2022/10/08 17:03:33;;;;;;;1.90;0.97;;;14.60;99.90;;;;;;5012870;28;20189;-66
2022/10/08 17:05:59;;;;;;;2.00;1.57;;;14.50;99.90;;;;;;5013181;28;20425;-66